sensor_id;sensor_type;location;lat;lon;timestamp;pressure;altitude;pressure_sealevel;temperature;humidity
36964;BME280;22878;48.616;35.326;2023-02-12T00:00:48;101188.59;;;1.08;100.00
36964;BME280;22878;48.616;35.326;2023-02-12T00:03:13;101183.61;;;1.11;100.00
36964;BME280;22878;48.616;35.326;2023-02-12T00:05:39;101177.88;;;1.13;100.00
36964;BME280;22878;48.616;35.326;2023-02-12T00:08:08;101173.15;;;1.14;100.00
36964;BME280;22878;48.616;35.326;2023-02-12T00:10:39;101168.57;;;1.15;100.00
36964;BME280;22878;48.616;35.326;2023-02-12T00:13:07;101168.60;;;1.18;100.00
36964;BME280;22878;48.616;35.326;2023-02-12T00:15:33;101165.18;;;1.19;100.00
36964;BME280;22878;48.616;35.326;2023-02-12T00:17:59;101162.66;;;1.20;100.00
36964;BME280;22878;48.616;35.326;2023-02-12T00:20:24;101156.52;;;1.22;100.00
36964;BME280;22878;48.616;35.326;2023-02-12T00:22:50;101150.54;;;1.21;100.00
36964;BME280;22878;48.616;35.326;2023-02-12T00:25:15;101144.79;;;1.21;100.00
36964;BME280;22878;48.616;35.326;2023-02-12T00:27:43;101133.65;;;1.22;100.00
36964;BME280;22878;48.616;35.326;2023-02-12T00:30:08;101135.40;;;1.25;100.00
36964;BME280;22878;48.616;35.326;2023-02-12T00:32:34;101131.48;;;1.24;100.00
36964;BME280;22878;48.616;35.326;2023-02-12T00:35:01;101127.08;;;1.23;100.00
36964;BME280;22878;48.616;35.326;2023-02-12T00:37:27;101123.92;;;1.25;100.00
36964;BME280;22878;48.616;35.326;2023-02-12T00:39:52;101126.95;;;1.24;100.00
36964;BME280;22878;48.616;35.326;2023-02-12T00:42:18;101120.21;;;1.25;100.00
36964;BME280;22878;48.616;35.326;2023-02-12T00:44:44;101115.98;;;1.24;100.00
36964;BME280;22878;48.616;35.326;2023-02-12T00:47:09;101112.02;;;1.24;100.00
36964;BME280;22878;48.616;35.326;2023-02-12T00:49:35;101107.98;;;1.23;100.00
36964;BME280;22878;48.616;35.326;2023-02-12T00:52:01;101106.34;;;1.22;100.00
36964;BME280;22878;48.616;35.326;2023-02-12T00:54:28;101106.70;;;1.22;100.00
36964;BME280;22878;48.616;35.326;2023-02-12T00:56:54;101107.44;;;1.22;100.00
36964;BME280;22878;48.616;35.326;2023-02-12T00:59:21;101104.86;;;1.21;100.00
36964;BME280;22878;48.616;35.326;2023-02-12T01:01:47;101103.60;;;1.20;100.00
36964;BME280;22878;48.616;35.326;2023-02-12T01:04:13;101100.04;;;1.22;100.00
36964;BME280;22878;48.616;35.326;2023-02-12T01:06:38;101101.25;;;1.23;100.00
36964;BME280;22878;48.616;35.326;2023-02-12T01:09:04;101095.32;;;1.24;100.00
36964;BME280;22878;48.616;35.326;2023-02-12T01:11:29;101097.42;;;1.26;100.00
36964;BME280;22878;48.616;35.326;2023-02-12T01:13:54;101097.99;;;1.28;100.00
36964;BME280;22878;48.616;35.326;2023-02-12T01:16:22;101092.80;;;1.29;100.00
36964;BME280;22878;48.616;35.326;2023-02-12T01:18:50;101095.48;;;1.27;100.00
36964;BME280;22878;48.616;35.326;2023-02-12T01:21:24;101094.80;;;1.27;100.00
36964;BME280;22878;48.616;35.326;2023-02-12T01:23:50;101094.80;;;1.27;100.00
36964;BME280;22878;48.616;35.326;2023-02-12T01:26:17;101094.83;;;1.27;100.00
36964;BME280;22878;48.616;35.326;2023-02-12T01:28:47;101090.84;;;1.27;100.00
36964;BME280;22878;48.616;35.326;2023-02-12T01:31:21;101087.50;;;1.29;100.00
36964;BME280;22878;48.616;35.326;2023-02-12T01:33:48;101087.29;;;1.27;100.00
36964;BME280;22878;48.616;35.326;2023-02-12T01:36:14;101081.60;;;1.26;100.00
36964;BME280;22878;48.616;35.326;2023-02-12T01:38:40;101073.60;;;1.27;100.00
36964;BME280;22878;48.616;35.326;2023-02-12T01:41:09;101068.23;;;1.26;100.00
36964;BME280;22878;48.616;35.326;2023-02-12T01:43:35;101063.67;;;1.27;100.00
36964;BME280;22878;48.616;35.326;2023-02-12T01:46:02;101062.31;;;1.26;100.00
36964;BME280;22878;48.616;35.326;2023-02-12T01:48:31;101059.27;;;1.24;100.00
36964;BME280;22878;48.616;35.326;2023-02-12T01:50:58;101051.70;;;1.22;100.00
36964;BME280;22878;48.616;35.326;2023-02-12T01:53:28;101051.52;;;1.19;100.00
36964;BME280;22878;48.616;35.326;2023-02-12T01:55:57;101052.57;;;1.13;100.00
36964;BME280;22878;48.616;35.326;2023-02-12T01:58:25;101049.06;;;1.10;100.00
36964;BME280;22878;48.616;35.326;2023-02-12T02:00:53;101050.22;;;1.08;100.00
36964;BME280;22878;48.616;35.326;2023-02-12T02:03:18;101043.80;;;1.04;100.00
36964;BME280;22878;48.616;35.326;2023-02-12T02:05:58;101041.73;;;1.02;100.00
36964;BME280;22878;48.616;35.326;2023-02-12T02:08:28;101043.20;;;0.99;100.00
36964;BME280;22878;48.616;35.326;2023-02-12T02:10:54;101036.46;;;0.97;100.00
36964;BME280;22878;48.616;35.326;2023-02-12T02:13:19;101041.58;;;0.96;100.00
36964;BME280;22878;48.616;35.326;2023-02-12T02:16:23;101039.67;;;0.94;100.00
36964;BME280;22878;48.616;35.326;2023-02-12T02:19:24;101038.29;;;0.94;100.00
36964;BME280;22878;48.616;35.326;2023-02-12T02:30:31;101032.18;;;0.82;100.00
36964;BME280;22878;48.616;35.326;2023-02-12T02:35:52;101023.63;;;0.76;100.00
36964;BME280;22878;48.616;35.326;2023-02-12T02:38:33;101027.52;;;0.75;100.00
36964;BME280;22878;48.616;35.326;2023-02-12T02:41:15;101030.04;;;0.74;100.00
36964;BME280;22878;48.616;35.326;2023-02-12T02:43:49;101030.40;;;0.73;100.00
36964;BME280;22878;48.616;35.326;2023-02-12T02:46:35;101021.16;;;0.73;100.00
36964;BME280;22878;48.616;35.326;2023-02-12T02:49:10;101020.90;;;0.74;100.00
36964;BME280;22878;48.616;35.326;2023-02-12T02:51:44;101015.54;;;0.73;100.00
36964;BME280;22878;48.616;35.326;2023-02-12T02:54:16;101013.26;;;0.73;100.00
36964;BME280;22878;48.616;35.326;2023-02-12T02:56:46;101010.73;;;0.70;100.00
36964;BME280;22878;48.616;35.326;2023-02-12T02:59:19;101009.98;;;0.66;100.00
36964;BME280;22878;48.616;35.326;2023-02-12T03:02:19;101014.01;;;0.65;100.00
36964;BME280;22878;48.616;35.326;2023-02-12T03:05:01;101016.61;;;0.64;100.00
36964;BME280;22878;48.616;35.326;2023-02-12T03:07:40;101019.54;;;0.63;100.00
36964;BME280;22878;48.616;35.326;2023-02-12T03:15:33;101009.40;;;0.62;100.00
36964;BME280;22878;48.616;35.326;2023-02-12T03:18:03;101014.98;;;0.61;100.00
36964;BME280;22878;48.616;35.326;2023-02-12T03:20:35;101014.27;;;0.60;100.00
36964;BME280;22878;48.616;35.326;2023-02-12T03:23:16;101012.82;;;0.59;100.00
36964;BME280;22878;48.616;35.326;2023-02-12T03:28:27;101009.95;;;0.57;100.00
36964;BME280;22878;48.616;35.326;2023-02-12T03:33:29;101002.27;;;0.57;100.00
36964;BME280;22878;48.616;35.326;2023-02-12T03:36:11;101004.44;;;0.57;100.00
36964;BME280;22878;48.616;35.326;2023-02-12T03:38:47;100997.71;;;0.54;100.00
36964;BME280;22878;48.616;35.326;2023-02-12T03:44:21;100998.83;;;0.45;100.00
36964;BME280;22878;48.616;35.326;2023-02-12T03:47:06;101001.86;;;0.43;100.00
36964;BME280;22878;48.616;35.326;2023-02-12T03:49:51;101004.86;;;0.42;100.00
36964;BME280;22878;48.616;35.326;2023-02-12T03:52:19;101006.67;;;0.38;100.00
36964;BME280;22878;48.616;35.326;2023-02-12T03:54:44;101008.17;;;0.37;100.00
36964;BME280;22878;48.616;35.326;2023-02-12T03:57:18;101011.46;;;0.34;100.00
36964;BME280;22878;48.616;35.326;2023-02-12T03:59:45;101011.41;;;0.30;100.00
36964;BME280;22878;48.616;35.326;2023-02-12T04:02:11;101013.77;;;0.30;100.00
36964;BME280;22878;48.616;35.326;2023-02-12T04:04:37;101011.32;;;0.27;100.00
36964;BME280;22878;48.616;35.326;2023-02-12T04:07:02;101008.13;;;0.27;100.00
36964;BME280;22878;48.616;35.326;2023-02-12T04:09:30;101009.42;;;0.25;100.00
36964;BME280;22878;48.616;35.326;2023-02-12T04:17:55;100999.34;;;0.13;100.00
36964;BME280;22878;48.616;35.326;2023-02-12T04:20:54;101001.45;;;0.10;100.00
36964;BME280;22878;48.616;35.326;2023-02-12T04:33:45;100996.14;;;0.01;100.00
36964;BME280;22878;48.616;35.326;2023-02-12T04:36:15;100997.46;;;-0.01;100.00
36964;BME280;22878;48.616;35.326;2023-02-12T04:38:54;101001.11;;;-0.02;100.00
36964;BME280;22878;48.616;35.326;2023-02-12T04:41:23;100999.68;;;-0.05;100.00
36964;BME280;22878;48.616;35.326;2023-02-12T04:43:50;100997.78;;;-0.08;100.00
36964;BME280;22878;48.616;35.326;2023-02-12T04:46:15;100996.45;;;-0.10;100.00
36964;BME280;22878;48.616;35.326;2023-02-12T04:48:58;101000.08;;;-0.13;100.00
36964;BME280;22878;48.616;35.326;2023-02-12T04:51:23;101001.94;;;-0.14;100.00
36964;BME280;22878;48.616;35.326;2023-02-12T04:53:49;100995.91;;;-0.16;100.00
36964;BME280;22878;48.616;35.326;2023-02-12T04:56:15;100999.45;;;-0.17;100.00
36964;BME280;22878;48.616;35.326;2023-02-12T04:58:41;101001.56;;;-0.19;100.00
36964;BME280;22878;48.616;35.326;2023-02-12T05:01:07;101005.36;;;-0.22;100.00
36964;BME280;22878;48.616;35.326;2023-02-12T05:03:33;101004.36;;;-0.21;100.00
36964;BME280;22878;48.616;35.326;2023-02-12T05:06:07;101002.20;;;-0.20;100.00
36964;BME280;22878;48.616;35.326;2023-02-12T05:08:32;101005.65;;;-0.18;100.00
36964;BME280;22878;48.616;35.326;2023-02-12T05:11:08;101011.88;;;-0.17;100.00
36964;BME280;22878;48.616;35.326;2023-02-12T05:13:34;101010.69;;;-0.16;100.00
36964;BME280;22878;48.616;35.326;2023-02-12T05:16:03;101017.30;;;-0.16;100.00
36964;BME280;22878;48.616;35.326;2023-02-12T05:18:30;101018.02;;;-0.17;100.00
36964;BME280;22878;48.616;35.326;2023-02-12T05:20:57;101016.58;;;-0.18;100.00
36964;BME280;22878;48.616;35.326;2023-02-12T05:23:27;101018.86;;;-0.18;100.00
36964;BME280;22878;48.616;35.326;2023-02-12T05:25:53;101022.72;;;-0.19;100.00
36964;BME280;22878;48.616;35.326;2023-02-12T05:28:22;101015.78;;;-0.14;100.00
36964;BME280;22878;48.616;35.326;2023-02-12T05:30:47;101015.30;;;-0.12;100.00
36964;BME280;22878;48.616;35.326;2023-02-12T05:33:13;101022.27;;;-0.10;100.00
36964;BME280;22878;48.616;35.326;2023-02-12T05:35:38;101024.80;;;-0.09;100.00
36964;BME280;22878;48.616;35.326;2023-02-12T05:38:03;101019.06;;;-0.06;100.00
36964;BME280;22878;48.616;35.326;2023-02-12T05:40:29;101023.27;;;-0.01;100.00
36964;BME280;22878;48.616;35.326;2023-02-12T05:42:54;101028.02;;;0.04;100.00
36964;BME280;22878;48.616;35.326;2023-02-12T05:45:20;101026.48;;;0.08;100.00
36964;BME280;22878;48.616;35.326;2023-02-12T05:47:45;101028.66;;;0.11;100.00
36964;BME280;22878;48.616;35.326;2023-02-12T05:50:11;101029.02;;;0.16;100.00
36964;BME280;22878;48.616;35.326;2023-02-12T05:52:36;101033.15;;;0.17;100.00
36964;BME280;22878;48.616;35.326;2023-02-12T05:55:02;101041.46;;;0.18;100.00
36964;BME280;22878;48.616;35.326;2023-02-12T05:57:27;101035.68;;;0.19;100.00
36964;BME280;22878;48.616;35.326;2023-02-12T05:59:53;101043.88;;;0.22;100.00
36964;BME280;22878;48.616;35.326;2023-02-12T06:02:18;101046.04;;;0.23;100.00
36964;BME280;22878;48.616;35.326;2023-02-12T06:04:44;101045.71;;;0.26;100.00
36964;BME280;22878;48.616;35.326;2023-02-12T06:07:09;101047.52;;;0.27;100.00
36964;BME280;22878;48.616;35.326;2023-02-12T06:09:36;101047.34;;;0.30;100.00
36964;BME280;22878;48.616;35.326;2023-02-12T06:12:01;101047.73;;;0.30;100.00
36964;BME280;22878;48.616;35.326;2023-02-12T06:14:27;101048.85;;;0.33;100.00
36964;BME280;22878;48.616;35.326;2023-02-12T06:16:52;101047.52;;;0.40;100.00
36964;BME280;22878;48.616;35.326;2023-02-12T06:19:18;101051.55;;;0.48;100.00
36964;BME280;22878;48.616;35.326;2023-02-12T06:21:44;101047.23;;;0.55;100.00
36964;BME280;22878;48.616;35.326;2023-02-12T06:24:11;101049.05;;;0.62;100.00
36964;BME280;22878;48.616;35.326;2023-02-12T06:26:37;101051.80;;;0.65;100.00
36964;BME280;22878;48.616;35.326;2023-02-12T06:29:03;101055.55;;;0.68;100.00
36964;BME280;22878;48.616;35.326;2023-02-12T06:31:31;101059.62;;;0.68;100.00
36964;BME280;22878;48.616;35.326;2023-02-12T06:33:59;101054.48;;;0.68;100.00
36964;BME280;22878;48.616;35.326;2023-02-12T06:36:25;101066.61;;;0.69;100.00
36964;BME280;22878;48.616;35.326;2023-02-12T06:38:51;101064.95;;;0.72;100.00
36964;BME280;22878;48.616;35.326;2023-02-12T06:41:16;101063.73;;;0.78;100.00
36964;BME280;22878;48.616;35.326;2023-02-12T06:43:42;101063.98;;;0.86;100.00
36964;BME280;22878;48.616;35.326;2023-02-12T06:46:08;101067.59;;;0.90;100.00
36964;BME280;22878;48.616;35.326;2023-02-12T06:48:34;101073.52;;;0.94;100.00
36964;BME280;22878;48.616;35.326;2023-02-12T06:51:07;101071.05;;;0.97;100.00
36964;BME280;22878;48.616;35.326;2023-02-12T06:53:34;101075.79;;;1.00;100.00
36964;BME280;22878;48.616;35.326;2023-02-12T06:56:01;101073.63;;;1.03;100.00
36964;BME280;22878;48.616;35.326;2023-02-12T06:58:27;101075.62;;;1.08;100.00
36964;BME280;22878;48.616;35.326;2023-02-12T07:00:53;101072.08;;;1.16;100.00
36964;BME280;22878;48.616;35.326;2023-02-12T07:03:18;101074.77;;;1.26;100.00
36964;BME280;22878;48.616;35.326;2023-02-12T07:05:44;101074.26;;;1.39;100.00
36964;BME280;22878;48.616;35.326;2023-02-12T07:08:10;101074.67;;;1.47;100.00
36964;BME280;22878;48.616;35.326;2023-02-12T07:10:35;101070.98;;;1.49;100.00
36964;BME280;22878;48.616;35.326;2023-02-12T07:13:01;101073.36;;;1.50;100.00
36964;BME280;22878;48.616;35.326;2023-02-12T07:15:28;101074.63;;;1.52;100.00
36964;BME280;22878;48.616;35.326;2023-02-12T07:17:53;101079.02;;;1.49;100.00
36964;BME280;22878;48.616;35.326;2023-02-12T07:20:20;101081.33;;;1.47;100.00
36964;BME280;22878;48.616;35.326;2023-02-12T07:22:45;101083.87;;;1.47;100.00
36964;BME280;22878;48.616;35.326;2023-02-12T07:25:11;101089.31;;;1.47;100.00
36964;BME280;22878;48.616;35.326;2023-02-12T07:27:36;101094.47;;;1.49;100.00
36964;BME280;22878;48.616;35.326;2023-02-12T07:30:06;101102.42;;;1.51;100.00
36964;BME280;22878;48.616;35.326;2023-02-12T07:32:34;101101.49;;;1.56;100.00
36964;BME280;22878;48.616;35.326;2023-02-12T07:35:00;101104.06;;;1.64;100.00
36964;BME280;22878;48.616;35.326;2023-02-12T07:37:25;101107.65;;;1.67;100.00
36964;BME280;22878;48.616;35.326;2023-02-12T07:39:51;101110.48;;;1.74;100.00
36964;BME280;22878;48.616;35.326;2023-02-12T07:42:17;101108.89;;;1.85;100.00
36964;BME280;22878;48.616;35.326;2023-02-12T07:44:44;101120.34;;;1.97;100.00
36964;BME280;22878;48.616;35.326;2023-02-12T07:47:10;101122.13;;;2.17;100.00
36964;BME280;22878;48.616;35.326;2023-02-12T07:49:35;101127.72;;;2.37;100.00
36964;BME280;22878;48.616;35.326;2023-02-12T07:52:01;101137.46;;;2.52;100.00
36964;BME280;22878;48.616;35.326;2023-02-12T07:54:26;101149.79;;;2.64;100.00
36964;BME280;22878;48.616;35.326;2023-02-12T07:56:52;101150.48;;;2.68;100.00
36964;BME280;22878;48.616;35.326;2023-02-12T07:59:18;101155.66;;;2.78;100.00
36964;BME280;22878;48.616;35.326;2023-02-12T08:01:46;101162.06;;;2.93;100.00
36964;BME280;22878;48.616;35.326;2023-02-12T08:04:15;101167.30;;;2.95;100.00
36964;BME280;22878;48.616;35.326;2023-02-12T08:06:43;101178.04;;;3.06;100.00
36964;BME280;22878;48.616;35.326;2023-02-12T08:09:12;101174.89;;;4.41;100.00
36964;BME280;22878;48.616;35.326;2023-02-12T08:11:39;101178.63;;;6.91;100.00
36964;BME280;22878;48.616;35.326;2023-02-12T08:14:06;101173.25;;;9.59;99.00
36964;BME280;22878;48.616;35.326;2023-02-12T08:16:35;101185.00;;;11.58;79.93
36964;BME280;22878;48.616;35.326;2023-02-12T08:19:01;101191.23;;;13.12;60.68
36964;BME280;22878;48.616;35.326;2023-02-12T08:21:27;101194.42;;;14.38;55.09
36964;BME280;22878;48.616;35.326;2023-02-12T08:23:54;101203.42;;;15.09;47.35
36964;BME280;22878;48.616;35.326;2023-02-12T08:26:20;101207.76;;;15.77;46.51
36964;BME280;22878;48.616;35.326;2023-02-12T08:28:55;101210.57;;;15.25;41.95
36964;BME280;22878;48.616;35.326;2023-02-12T08:31:24;101216.58;;;15.20;42.98
36964;BME280;22878;48.616;35.326;2023-02-12T08:33:51;101222.03;;;15.94;41.02
36964;BME280;22878;48.616;35.326;2023-02-12T08:36:22;101224.08;;;16.81;42.02
36964;BME280;22878;48.616;35.326;2023-02-12T08:38:48;101237.05;;;17.43;37.08
36964;BME280;22878;48.616;35.326;2023-02-12T08:41:20;101236.45;;;17.23;36.90
36964;BME280;22878;48.616;35.326;2023-02-12T08:43:47;101236.26;;;17.74;36.64
36964;BME280;22878;48.616;35.326;2023-02-12T08:46:18;101239.98;;;18.14;35.14
36964;BME280;22878;48.616;35.326;2023-02-12T08:48:45;101246.28;;;17.81;34.00
36964;BME280;22878;48.616;35.326;2023-02-12T08:53:38;101260.17;;;15.71;34.15
36964;BME280;22878;48.616;35.326;2023-02-12T08:56:04;101264.06;;;13.63;36.70
36964;BME280;22878;48.616;35.326;2023-02-12T08:58:30;101280.41;;;12.14;38.20
36964;BME280;22878;48.616;35.326;2023-02-12T09:00:56;101276.69;;;10.92;38.95
36964;BME280;22878;48.616;35.326;2023-02-12T09:03:22;101281.39;;;9.70;41.28
36964;BME280;22878;48.616;35.326;2023-02-12T09:05:47;101286.55;;;9.09;42.58
36964;BME280;22878;48.616;35.326;2023-02-12T09:08:13;101285.58;;;8.64;43.59
36964;BME280;22878;48.616;35.326;2023-02-12T09:10:42;101292.80;;;8.04;44.89
36964;BME280;22878;48.616;35.326;2023-02-12T09:13:09;101294.64;;;7.71;45.73
36964;BME280;22878;48.616;35.326;2023-02-12T09:15:43;101297.48;;;7.18;46.56
36964;BME280;22878;48.616;35.326;2023-02-12T09:18:13;101297.88;;;6.76;47.38
36964;BME280;22878;48.616;35.326;2023-02-12T09:20:41;101306.54;;;6.29;48.63
36964;BME280;22878;48.616;35.326;2023-02-12T09:23:12;101314.79;;;5.91;49.96
36964;BME280;22878;48.616;35.326;2023-02-12T09:25:40;101305.63;;;5.65;51.24
36964;BME280;22878;48.616;35.326;2023-02-12T09:28:06;101311.05;;;5.52;52.31
36964;BME280;22878;48.616;35.326;2023-02-12T09:30:31;101307.13;;;5.58;52.82
36964;BME280;22878;48.616;35.326;2023-02-12T09:32:57;101306.81;;;5.72;52.61
36964;BME280;22878;48.616;35.326;2023-02-12T09:35:22;101312.66;;;5.63;52.01
36964;BME280;22878;48.616;35.326;2023-02-12T09:37:49;101309.98;;;5.45;52.69
36964;BME280;22878;48.616;35.326;2023-02-12T09:40:43;101313.69;;;5.44;54.08
36964;BME280;22878;48.616;35.326;2023-02-12T09:43:18;101316.61;;;5.43;53.39
36964;BME280;22878;48.616;35.326;2023-02-12T09:51:17;101314.29;;;4.82;54.05
36964;BME280;22878;48.616;35.326;2023-02-12T09:53:45;101317.43;;;4.77;54.02
36964;BME280;22878;48.616;35.326;2023-02-12T09:56:15;101311.52;;;4.65;54.39
36964;BME280;22878;48.616;35.326;2023-02-12T09:58:54;101312.37;;;4.66;54.46
36964;BME280;22878;48.616;35.326;2023-02-12T10:01:21;101312.71;;;4.80;54.74
36964;BME280;22878;48.616;35.326;2023-02-12T10:03:49;101314.70;;;4.95;54.28
36964;BME280;22878;48.616;35.326;2023-02-12T10:20:31;101330.59;;;3.62;55.45
36964;BME280;22878;48.616;35.326;2023-02-12T10:26:16;101342.20;;;3.31;55.62
36964;BME280;22878;48.616;35.326;2023-02-12T10:28:43;101348.54;;;3.43;55.86
36964;BME280;22878;48.616;35.326;2023-02-12T10:31:16;101359.11;;;3.62;55.11
36964;BME280;22878;48.616;35.326;2023-02-12T10:33:48;101364.48;;;3.74;54.28
36964;BME280;22878;48.616;35.326;2023-02-12T10:44:28;101379.52;;;3.98;53.98
36964;BME280;22878;48.616;35.326;2023-02-12T10:46:54;101382.89;;;3.98;54.77
36964;BME280;22878;48.616;35.326;2023-02-12T10:49:20;101381.98;;;4.00;53.86
36964;BME280;22878;48.616;35.326;2023-02-12T10:54:41;101391.82;;;4.15;54.49
36964;BME280;22878;48.616;35.326;2023-02-12T10:57:25;101392.92;;;4.12;53.45
36964;BME280;22878;48.616;35.326;2023-02-12T10:59:53;101404.38;;;4.11;54.32
36964;BME280;22878;48.616;35.326;2023-02-12T11:04:47;101402.30;;;4.09;53.51
36964;BME280;22878;48.616;35.326;2023-02-12T11:07:13;101411.89;;;4.05;53.99
36964;BME280;22878;48.616;35.326;2023-02-12T11:09:45;101419.85;;;4.05;53.69
36964;BME280;22878;48.616;35.326;2023-02-12T11:12:33;101417.80;;;3.94;53.54
36964;BME280;22878;48.616;35.326;2023-02-12T11:15:21;101424.10;;;3.83;53.31
36964;BME280;22878;48.616;35.326;2023-02-12T11:18:02;101423.08;;;3.72;53.21
36964;BME280;22878;48.616;35.326;2023-02-12T11:20:40;101431.05;;;3.49;52.84
36964;BME280;22878;48.616;35.326;2023-02-12T11:23:25;101426.34;;;3.30;53.52
36964;BME280;22878;48.616;35.326;2023-02-12T11:25:58;101431.67;;;3.23;53.77
36964;BME280;22878;48.616;35.326;2023-02-12T11:28:24;101438.58;;;3.14;53.52
36964;BME280;22878;48.616;35.326;2023-02-12T11:31:19;101435.10;;;3.00;53.76
36964;BME280;22878;48.616;35.326;2023-02-12T11:33:45;101441.02;;;2.90;53.87
36964;BME280;22878;48.616;35.326;2023-02-12T11:36:34;101440.29;;;2.80;53.28
36964;BME280;22878;48.616;35.326;2023-02-12T11:39:01;101443.48;;;2.69;54.87
36964;BME280;22878;48.616;35.326;2023-02-12T11:41:33;101448.09;;;2.75;54.25
36964;BME280;22878;48.616;35.326;2023-02-12T11:44:36;101449.59;;;2.62;54.38
36964;BME280;22878;48.616;35.326;2023-02-12T11:47:08;101446.54;;;2.58;54.55
36964;BME280;22878;48.616;35.326;2023-02-12T11:49:40;101450.42;;;2.56;54.78
36964;BME280;22878;48.616;35.326;2023-02-12T11:52:25;101454.65;;;2.42;55.25
36964;BME280;22878;48.616;35.326;2023-02-12T11:54:55;101456.13;;;2.39;55.55
36964;BME280;22878;48.616;35.326;2023-02-12T11:57:44;101458.32;;;2.36;55.25
36964;BME280;22878;48.616;35.326;2023-02-12T12:02:46;101464.15;;;2.31;56.02
36964;BME280;22878;48.616;35.326;2023-02-12T12:05:37;101471.56;;;2.32;56.01
36964;BME280;22878;48.616;35.326;2023-02-12T12:08:37;101468.58;;;2.15;56.41
36964;BME280;22878;48.616;35.326;2023-02-12T12:11:30;101472.12;;;1.94;57.64
36964;BME280;22878;48.616;35.326;2023-02-12T12:14:04;101477.26;;;1.92;58.50
36964;BME280;22878;48.616;35.326;2023-02-12T12:20:00;101481.98;;;1.94;60.80
36964;BME280;22878;48.616;35.326;2023-02-12T12:25:25;101480.69;;;1.77;59.88
36964;BME280;22878;48.616;35.326;2023-02-12T12:28:08;101484.48;;;1.69;60.52
36964;BME280;22878;48.616;35.326;2023-02-12T12:56:09;101509.15;;;1.44;61.36
36964;BME280;22878;48.616;35.326;2023-02-12T13:09:33;101519.83;;;1.12;59.81
36964;BME280;22878;48.616;35.326;2023-02-12T13:18:08;101523.77;;;0.97;60.26
36964;BME280;22878;48.616;35.326;2023-02-12T13:20:49;101530.13;;;0.96;59.90
36964;BME280;22878;48.616;35.326;2023-02-12T13:23:18;101535.17;;;0.88;59.82
36964;BME280;22878;48.616;35.326;2023-02-12T13:28:46;101545.42;;;0.70;61.49
36964;BME280;22878;48.616;35.326;2023-02-12T13:31:17;101547.67;;;0.71;62.47
36964;BME280;22878;48.616;35.326;2023-02-12T13:33:49;101545.80;;;0.73;64.25
36964;BME280;22878;48.616;35.326;2023-02-12T13:36:18;101550.88;;;0.77;64.36
36964;BME280;22878;48.616;35.326;2023-02-12T13:38:48;101554.36;;;0.76;65.23
36964;BME280;22878;48.616;35.326;2023-02-12T13:41:16;101548.59;;;0.77;65.72
36964;BME280;22878;48.616;35.326;2023-02-12T13:49:28;101552.91;;;0.70;66.62
36964;BME280;22878;48.616;35.326;2023-02-12T13:57:19;101556.75;;;0.51;64.78
36964;BME280;22878;48.616;35.326;2023-02-12T13:59:46;101562.39;;;0.40;65.28
36964;BME280;22878;48.616;35.326;2023-02-12T14:05:04;101577.98;;;0.25;66.70
36964;BME280;22878;48.616;35.326;2023-02-12T14:07:50;101577.75;;;0.21;66.91
36964;BME280;22878;48.616;35.326;2023-02-12T14:10:33;101579.05;;;0.12;69.35
36964;BME280;22878;48.616;35.326;2023-02-12T14:15:37;101585.01;;;0.08;69.82
36964;BME280;22878;48.616;35.326;2023-02-12T14:20:47;101596.41;;;0.01;70.64
36964;BME280;22878;48.616;35.326;2023-02-12T14:23:33;101601.93;;;-0.07;71.54
36964;BME280;22878;48.616;35.326;2023-02-12T14:26:09;101602.07;;;-0.13;72.56
36964;BME280;22878;48.616;35.326;2023-02-12T14:28:55;101606.95;;;-0.17;73.85
36964;BME280;22878;48.616;35.326;2023-02-12T14:31:31;101601.36;;;-0.24;74.30
36964;BME280;22878;48.616;35.326;2023-02-12T14:39:04;101614.52;;;-0.33;76.57
36964;BME280;22878;48.616;35.326;2023-02-12T14:41:33;101613.73;;;-0.39;78.13
36964;BME280;22878;48.616;35.326;2023-02-12T14:46:51;101623.65;;;-0.48;80.53
36964;BME280;22878;48.616;35.326;2023-02-12T14:49:27;101631.22;;;-0.53;81.75
36964;BME280;22878;48.616;35.326;2023-02-12T14:57:06;101644.94;;;-0.59;83.72
36964;BME280;22878;48.616;35.326;2023-02-12T14:59:38;101644.45;;;-0.63;84.10
36964;BME280;22878;48.616;35.326;2023-02-12T15:02:05;101648.10;;;-0.68;85.82
36964;BME280;22878;48.616;35.326;2023-02-12T15:04:36;101655.14;;;-0.67;85.27
36964;BME280;22878;48.616;35.326;2023-02-12T15:07:06;101659.44;;;-0.66;85.16
36964;BME280;22878;48.616;35.326;2023-02-12T15:09:54;101664.05;;;-0.70;87.49
36964;BME280;22878;48.616;35.326;2023-02-12T15:12:30;101668.05;;;-0.78;90.60
36964;BME280;22878;48.616;35.326;2023-02-12T15:17:31;101680.65;;;-0.85;93.35
36964;BME280;22878;48.616;35.326;2023-02-12T15:20:06;101679.48;;;-0.89;93.69
36964;BME280;22878;48.616;35.326;2023-02-12T15:22:41;101681.89;;;-0.90;94.25
36964;BME280;22878;48.616;35.326;2023-02-12T15:28:20;101691.52;;;-0.95;96.18
36964;BME280;22878;48.616;35.326;2023-02-12T15:30:45;101698.21;;;-0.97;95.57
36964;BME280;22878;48.616;35.326;2023-02-12T15:33:23;101707.80;;;-0.98;96.33
36964;BME280;22878;48.616;35.326;2023-02-12T15:35:51;101713.39;;;-0.99;96.47
36964;BME280;22878;48.616;35.326;2023-02-12T15:38:23;101716.24;;;-1.01;96.48
36964;BME280;22878;48.616;35.326;2023-02-12T15:40:55;101717.86;;;-1.01;97.65
36964;BME280;22878;48.616;35.326;2023-02-12T15:43:26;101723.88;;;-1.03;97.71
36964;BME280;22878;48.616;35.326;2023-02-12T15:45:52;101724.31;;;-1.02;97.14
36964;BME280;22878;48.616;35.326;2023-02-12T15:48:20;101732.20;;;-1.03;98.38
36964;BME280;22878;48.616;35.326;2023-02-12T15:51:19;101731.36;;;-1.05;98.88